sensor_id;sensor_type;location;lat;lon;timestamp;P1;durP1;ratioP1;P2;durP2;ratioP2
60060;SDS011;45933;51.336;12.612;2023-03-15T00:00:59;6.07;;;2.20;;
60060;SDS011;45933;51.336;12.612;2023-03-15T00:03:31;10.27;;;2.20;;
60060;SDS011;45933;51.336;12.612;2023-03-15T00:06:01;6.83;;;1.80;;
60060;SDS011;45933;51.336;12.612;2023-03-15T00:08:26;10.57;;;2.10;;
60060;SDS011;45933;51.336;12.612;2023-03-15T00:10:52;8.67;;;2.00;;
60060;SDS011;45933;51.336;12.612;2023-03-15T00:13:17;11.67;;;2.50;;
60060;SDS011;45933;51.336;12.612;2023-03-15T00:15:46;13.63;;;2.37;;
60060;SDS011;45933;51.336;12.612;2023-03-15T00:18:13;9.70;;;2.43;;
60060;SDS011;45933;51.336;12.612;2023-03-15T00:20:39;11.80;;;2.60;;
60060;SDS011;45933;51.336;12.612;2023-03-15T00:23:05;10.97;;;1.83;;
60060;SDS011;45933;51.336;12.612;2023-03-15T00:25:31;9.27;;;2.13;;
60060;SDS011;45933;51.336;12.612;2023-03-15T00:27:56;7.53;;;2.50;;
60060;SDS011;45933;51.336;12.612;2023-03-15T00:30:21;14.23;;;2.90;;
60060;SDS011;45933;51.336;12.612;2023-03-15T00:32:47;13.20;;;2.63;;
60060;SDS011;45933;51.336;12.612;2023-03-15T00:35:12;8.03;;;2.47;;
60060;SDS011;45933;51.336;12.612;2023-03-15T00:37:37;12.63;;;2.70;;
60060;SDS011;45933;51.336;12.612;2023-03-15T00:40:04;14.67;;;2.57;;
60060;SDS011;45933;51.336;12.612;2023-03-15T00:42:31;8.77;;;2.00;;
60060;SDS011;45933;51.336;12.612;2023-03-15T00:44:57;11.30;;;2.13;;
60060;SDS011;45933;51.336;12.612;2023-03-15T00:47:23;9.63;;;2.43;;
60060;SDS011;45933;51.336;12.612;2023-03-15T00:49:48;8.30;;;1.90;;
60060;SDS011;45933;51.336;12.612;2023-03-15T00:52:15;6.93;;;2.10;;
60060;SDS011;45933;51.336;12.612;2023-03-15T00:54:40;8.93;;;2.97;;
60060;SDS011;45933;51.336;12.612;2023-03-15T00:57:06;8.70;;;2.30;;
60060;SDS011;45933;51.336;12.612;2023-03-15T00:59:31;10.10;;;2.50;;
60060;SDS011;45933;51.336;12.612;2023-03-15T01:02:00;9.97;;;3.07;;
60060;SDS011;45933;51.336;12.612;2023-03-15T01:04:27;11.93;;;2.00;;
60060;SDS011;45933;51.336;12.612;2023-03-15T01:06:52;9.93;;;2.03;;
60060;SDS011;45933;51.336;12.612;2023-03-15T01:09:17;8.87;;;2.17;;
60060;SDS011;45933;51.336;12.612;2023-03-15T01:11:43;6.37;;;1.90;;
60060;SDS011;45933;51.336;12.612;2023-03-15T01:14:08;7.93;;;2.10;;
60060;SDS011;45933;51.336;12.612;2023-03-15T01:16:34;8.47;;;2.33;;
60060;SDS011;45933;51.336;12.612;2023-03-15T01:18:59;6.13;;;1.80;;
60060;SDS011;45933;51.336;12.612;2023-03-15T01:21:24;7.27;;;1.67;;
60060;SDS011;45933;51.336;12.612;2023-03-15T01:23:50;8.87;;;2.13;;
60060;SDS011;45933;51.336;12.612;2023-03-15T01:26:16;7.23;;;1.70;;
60060;SDS011;45933;51.336;12.612;2023-03-15T01:28:42;9.17;;;2.00;;
60060;SDS011;45933;51.336;12.612;2023-03-15T01:31:10;8.43;;;1.80;;
60060;SDS011;45933;51.336;12.612;2023-03-15T01:33:41;9.10;;;2.33;;
60060;SDS011;45933;51.336;12.612;2023-03-15T01:36:07;7.07;;;2.00;;
60060;SDS011;45933;51.336;12.612;2023-03-15T01:38:32;7.63;;;2.10;;
60060;SDS011;45933;51.336;12.612;2023-03-15T01:40:58;9.43;;;1.77;;
60060;SDS011;45933;51.336;12.612;2023-03-15T01:43:28;9.90;;;1.97;;
60060;SDS011;45933;51.336;12.612;2023-03-15T01:48:40;8.53;;;1.53;;
60060;SDS011;45933;51.336;12.612;2023-03-15T01:51:12;10.10;;;1.90;;
60060;SDS011;45933;51.336;12.612;2023-03-15T01:53:47;7.80;;;1.80;;
60060;SDS011;45933;51.336;12.612;2023-03-15T01:56:17;8.53;;;1.70;;
60060;SDS011;45933;51.336;12.612;2023-03-15T01:58:42;12.03;;;1.80;;
60060;SDS011;45933;51.336;12.612;2023-03-15T02:01:10;10.00;;;2.27;;
60060;SDS011;45933;51.336;12.612;2023-03-15T02:03:38;9.57;;;2.03;;
60060;SDS011;45933;51.336;12.612;2023-03-15T02:06:11;9.73;;;1.80;;
60060;SDS011;45933;51.336;12.612;2023-03-15T02:08:42;5.50;;;1.30;;
60060;SDS011;45933;51.336;12.612;2023-03-15T02:11:17;10.47;;;1.53;;
60060;SDS011;45933;51.336;12.612;2023-03-15T02:13:44;8.27;;;1.87;;
60060;SDS011;45933;51.336;12.612;2023-03-15T02:16:12;8.27;;;2.20;;
60060;SDS011;45933;51.336;12.612;2023-03-15T02:18:37;10.20;;;1.90;;
60060;SDS011;45933;51.336;12.612;2023-03-15T02:21:06;9.53;;;1.80;;
60060;SDS011;45933;51.336;12.612;2023-03-15T02:23:38;7.57;;;1.90;;
60060;SDS011;45933;51.336;12.612;2023-03-15T02:28:32;5.37;;;1.60;;
60060;SDS011;45933;51.336;12.612;2023-03-15T02:30:58;7.37;;;1.87;;
60060;SDS011;45933;51.336;12.612;2023-03-15T02:33:24;7.30;;;2.07;;
60060;SDS011;45933;51.336;12.612;2023-03-15T02:35:53;5.33;;;2.00;;
60060;SDS011;45933;51.336;12.612;2023-03-15T02:38:19;8.50;;;1.80;;
60060;SDS011;45933;51.336;12.612;2023-03-15T02:40:46;7.47;;;2.10;;
60060;SDS011;45933;51.336;12.612;2023-03-15T02:43:13;8.83;;;1.80;;
60060;SDS011;45933;51.336;12.612;2023-03-15T02:45:41;8.50;;;1.70;;
60060;SDS011;45933;51.336;12.612;2023-03-15T02:48:07;9.13;;;1.73;;
60060;SDS011;45933;51.336;12.612;2023-03-15T02:50:35;11.37;;;1.93;;
60060;SDS011;45933;51.336;12.612;2023-03-15T02:53:00;12.90;;;1.83;;
60060;SDS011;45933;51.336;12.612;2023-03-15T02:55:27;6.83;;;1.33;;
60060;SDS011;45933;51.336;12.612;2023-03-15T02:57:52;6.73;;;1.47;;
60060;SDS011;45933;51.336;12.612;2023-03-15T03:00:18;5.70;;;1.63;;
60060;SDS011;45933;51.336;12.612;2023-03-15T03:02:44;10.63;;;1.80;;
60060;SDS011;45933;51.336;12.612;2023-03-15T03:05:11;6.80;;;1.63;;
60060;SDS011;45933;51.336;12.612;2023-03-15T03:07:38;7.67;;;1.67;;
60060;SDS011;45933;51.336;12.612;2023-03-15T03:10:04;7.20;;;1.60;;
60060;SDS011;45933;51.336;12.612;2023-03-15T03:12:30;3.83;;;1.27;;
60060;SDS011;45933;51.336;12.612;2023-03-15T03:14:56;11.07;;;2.03;;
60060;SDS011;45933;51.336;12.612;2023-03-15T03:17:22;7.47;;;1.67;;
60060;SDS011;45933;51.336;12.612;2023-03-15T03:19:47;6.23;;;1.70;;
60060;SDS011;45933;51.336;12.612;2023-03-15T03:22:13;6.10;;;1.40;;
60060;SDS011;45933;51.336;12.612;2023-03-15T03:24:38;7.23;;;1.90;;
60060;SDS011;45933;51.336;12.612;2023-03-15T03:27:03;6.73;;;1.50;;
60060;SDS011;45933;51.336;12.612;2023-03-15T03:29:29;12.70;;;2.13;;
60060;SDS011;45933;51.336;12.612;2023-03-15T03:31:55;6.47;;;1.70;;
60060;SDS011;45933;51.336;12.612;2023-03-15T03:34:20;8.40;;;1.80;;
60060;SDS011;45933;51.336;12.612;2023-03-15T03:36:46;8.57;;;1.50;;
60060;SDS011;45933;51.336;12.612;2023-03-15T03:39:12;11.97;;;2.13;;
60060;SDS011;45933;51.336;12.612;2023-03-15T03:41:38;6.30;;;1.50;;
60060;SDS011;45933;51.336;12.612;2023-03-15T03:44:04;13.47;;;1.50;;
60060;SDS011;45933;51.336;12.612;2023-03-15T03:46:29;5.33;;;1.47;;
60060;SDS011;45933;51.336;12.612;2023-03-15T03:48:55;9.60;;;1.80;;
60060;SDS011;45933;51.336;12.612;2023-03-15T03:51:20;6.77;;;1.40;;
60060;SDS011;45933;51.336;12.612;2023-03-15T03:53:45;6.77;;;1.60;;
60060;SDS011;45933;51.336;12.612;2023-03-15T03:56:11;4.83;;;1.30;;
60060;SDS011;45933;51.336;12.612;2023-03-15T03:58:36;5.60;;;1.90;;
60060;SDS011;45933;51.336;12.612;2023-03-15T04:01:02;7.90;;;1.57;;
60060;SDS011;45933;51.336;12.612;2023-03-15T04:03:29;11.73;;;1.60;;
60060;SDS011;45933;51.336;12.612;2023-03-15T04:05:55;8.73;;;1.80;;
60060;SDS011;45933;51.336;12.612;2023-03-15T04:08:22;6.13;;;1.47;;
60060;SDS011;45933;51.336;12.612;2023-03-15T04:10:51;7.97;;;1.70;;
60060;SDS011;45933;51.336;12.612;2023-03-15T04:13:21;5.13;;;1.40;;
60060;SDS011;45933;51.336;12.612;2023-03-15T04:15:48;7.23;;;1.67;;
60060;SDS011;45933;51.336;12.612;2023-03-15T04:18:13;9.93;;;1.73;;
60060;SDS011;45933;51.336;12.612;2023-03-15T04:20:39;8.43;;;1.60;;
60060;SDS011;45933;51.336;12.612;2023-03-15T04:23:10;7.90;;;1.93;;
60060;SDS011;45933;51.336;12.612;2023-03-15T04:25:36;7.47;;;1.57;;
60060;SDS011;45933;51.336;12.612;2023-03-15T04:28:01;7.60;;;1.63;;
60060;SDS011;45933;51.336;12.612;2023-03-15T04:30:27;5.60;;;1.60;;
60060;SDS011;45933;51.336;12.612;2023-03-15T04:32:54;6.83;;;1.40;;
60060;SDS011;45933;51.336;12.612;2023-03-15T04:35:26;6.73;;;1.53;;
60060;SDS011;45933;51.336;12.612;2023-03-15T04:37:53;8.23;;;1.70;;
60060;SDS011;45933;51.336;12.612;2023-03-15T04:40:19;8.00;;;1.73;;
60060;SDS011;45933;51.336;12.612;2023-03-15T04:42:47;6.57;;;1.50;;
60060;SDS011;45933;51.336;12.612;2023-03-15T04:45:19;8.10;;;1.80;;
60060;SDS011;45933;51.336;12.612;2023-03-15T04:47:44;6.47;;;1.50;;
60060;SDS011;45933;51.336;12.612;2023-03-15T04:50:10;13.07;;;1.70;;
60060;SDS011;45933;51.336;12.612;2023-03-15T04:52:35;8.60;;;1.70;;
60060;SDS011;45933;51.336;12.612;2023-03-15T04:55:00;11.87;;;2.27;;
60060;SDS011;45933;51.336;12.612;2023-03-15T04:57:26;7.33;;;1.63;;
60060;SDS011;45933;51.336;12.612;2023-03-15T04:59:51;4.90;;;1.60;;
60060;SDS011;45933;51.336;12.612;2023-03-15T05:02:16;11.00;;;2.33;;
60060;SDS011;45933;51.336;12.612;2023-03-15T05:04:42;9.33;;;1.40;;
60060;SDS011;45933;51.336;12.612;2023-03-15T05:07:07;5.67;;;1.70;;
60060;SDS011;45933;51.336;12.612;2023-03-15T05:09:33;8.77;;;1.90;;
60060;SDS011;45933;51.336;12.612;2023-03-15T05:12:02;6.57;;;1.93;;
60060;SDS011;45933;51.336;12.612;2023-03-15T05:14:28;7.27;;;1.50;;
60060;SDS011;45933;51.336;12.612;2023-03-15T05:16:53;9.83;;;1.80;;
60060;SDS011;45933;51.336;12.612;2023-03-15T05:19:19;11.90;;;1.50;;
60060;SDS011;45933;51.336;12.612;2023-03-15T05:21:45;10.67;;;1.70;;
60060;SDS011;45933;51.336;12.612;2023-03-15T05:24:11;7.30;;;1.90;;
60060;SDS011;45933;51.336;12.612;2023-03-15T05:26:36;7.90;;;1.80;;
60060;SDS011;45933;51.336;12.612;2023-03-15T05:29:01;9.00;;;1.60;;
60060;SDS011;45933;51.336;12.612;2023-03-15T05:31:27;9.37;;;2.20;;
60060;SDS011;45933;51.336;12.612;2023-03-15T05:33:53;8.07;;;1.70;;
60060;SDS011;45933;51.336;12.612;2023-03-15T05:36:18;7.33;;;1.90;;
60060;SDS011;45933;51.336;12.612;2023-03-15T05:38:43;9.13;;;1.67;;
60060;SDS011;45933;51.336;12.612;2023-03-15T05:41:09;8.07;;;1.80;;
60060;SDS011;45933;51.336;12.612;2023-03-15T05:43:34;11.43;;;1.60;;
60060;SDS011;45933;51.336;12.612;2023-03-15T05:45:59;9.60;;;1.97;;
60060;SDS011;45933;51.336;12.612;2023-03-15T05:48:25;6.87;;;1.90;;
60060;SDS011;45933;51.336;12.612;2023-03-15T05:50:51;8.13;;;1.57;;
60060;SDS011;45933;51.336;12.612;2023-03-15T05:53:16;6.53;;;1.60;;
60060;SDS011;45933;51.336;12.612;2023-03-15T05:55:42;8.83;;;1.50;;
60060;SDS011;45933;51.336;12.612;2023-03-15T05:58:07;7.30;;;1.77;;
60060;SDS011;45933;51.336;12.612;2023-03-15T06:00:32;9.67;;;1.87;;
60060;SDS011;45933;51.336;12.612;2023-03-15T06:02:58;6.37;;;1.53;;
60060;SDS011;45933;51.336;12.612;2023-03-15T06:05:23;11.07;;;1.80;;
60060;SDS011;45933;51.336;12.612;2023-03-15T06:07:48;11.67;;;1.80;;
60060;SDS011;45933;51.336;12.612;2023-03-15T06:10:14;7.60;;;1.90;;
60060;SDS011;45933;51.336;12.612;2023-03-15T06:12:39;9.90;;;1.67;;
60060;SDS011;45933;51.336;12.612;2023-03-15T06:15:05;7.07;;;1.70;;
60060;SDS011;45933;51.336;12.612;2023-03-15T06:17:31;9.83;;;2.23;;
60060;SDS011;45933;51.336;12.612;2023-03-15T06:19:56;8.03;;;2.00;;
60060;SDS011;45933;51.336;12.612;2023-03-15T06:22:21;9.70;;;2.20;;
60060;SDS011;45933;51.336;12.612;2023-03-15T06:24:48;10.57;;;2.30;;
60060;SDS011;45933;51.336;12.612;2023-03-15T06:27:13;13.43;;;2.10;;
60060;SDS011;45933;51.336;12.612;2023-03-15T06:29:39;7.07;;;1.50;;
60060;SDS011;45933;51.336;12.612;2023-03-15T06:32:04;8.27;;;2.07;;
60060;SDS011;45933;51.336;12.612;2023-03-15T06:34:30;13.13;;;4.53;;
60060;SDS011;45933;51.336;12.612;2023-03-15T06:36:55;9.60;;;2.23;;
60060;SDS011;45933;51.336;12.612;2023-03-15T06:39:20;6.30;;;1.90;;
60060;SDS011;45933;51.336;12.612;2023-03-15T06:41:47;10.83;;;2.73;;
60060;SDS011;45933;51.336;12.612;2023-03-15T06:44:12;10.33;;;2.30;;
60060;SDS011;45933;51.336;12.612;2023-03-15T06:46:38;6.50;;;2.00;;
60060;SDS011;45933;51.336;12.612;2023-03-15T06:49:03;14.60;;;2.00;;
60060;SDS011;45933;51.336;12.612;2023-03-15T06:51:29;6.83;;;1.60;;
60060;SDS011;45933;51.336;12.612;2023-03-15T06:53:54;12.60;;;2.97;;
60060;SDS011;45933;51.336;12.612;2023-03-15T06:56:19;13.97;;;2.10;;
60060;SDS011;45933;51.336;12.612;2023-03-15T06:58:45;7.23;;;2.53;;
60060;SDS011;45933;51.336;12.612;2023-03-15T07:01:11;9.43;;;2.50;;
60060;SDS011;45933;51.336;12.612;2023-03-15T07:03:37;8.47;;;2.33;;
60060;SDS011;45933;51.336;12.612;2023-03-15T07:06:03;9.30;;;2.47;;
60060;SDS011;45933;51.336;12.612;2023-03-15T07:08:28;10.73;;;2.80;;
60060;SDS011;45933;51.336;12.612;2023-03-15T07:10:54;6.83;;;2.07;;
60060;SDS011;45933;51.336;12.612;2023-03-15T07:13:20;11.60;;;2.23;;
60060;SDS011;45933;51.336;12.612;2023-03-15T07:15:45;8.73;;;2.10;;
60060;SDS011;45933;51.336;12.612;2023-03-15T07:18:14;7.73;;;1.97;;
60060;SDS011;45933;51.336;12.612;2023-03-15T07:20:40;6.00;;;1.90;;
60060;SDS011;45933;51.336;12.612;2023-03-15T07:23:05;13.90;;;4.40;;
60060;SDS011;45933;51.336;12.612;2023-03-15T07:25:31;20.83;;;9.73;;
60060;SDS011;45933;51.336;12.612;2023-03-15T07:27:56;22.97;;;13.40;;
60060;SDS011;45933;51.336;12.612;2023-03-15T07:30:21;28.00;;;20.20;;
60060;SDS011;45933;51.336;12.612;2023-03-15T07:32:47;14.80;;;7.13;;
60060;SDS011;45933;51.336;12.612;2023-03-15T07:35:12;9.93;;;4.53;;
60060;SDS011;45933;51.336;12.612;2023-03-15T07:37:38;16.80;;;3.70;;
60060;SDS011;45933;51.336;12.612;2023-03-15T07:40:04;13.83;;;4.13;;
60060;SDS011;45933;51.336;12.612;2023-03-15T07:42:37;11.00;;;3.57;;
60060;SDS011;45933;51.336;12.612;2023-03-15T07:45:04;8.13;;;3.60;;
60060;SDS011;45933;51.336;12.612;2023-03-15T07:47:31;10.93;;;3.57;;
60060;SDS011;45933;51.336;12.612;2023-03-15T07:49:56;10.73;;;2.83;;
60060;SDS011;45933;51.336;12.612;2023-03-15T07:52:22;10.07;;;3.50;;
60060;SDS011;45933;51.336;12.612;2023-03-15T07:54:48;12.70;;;4.00;;
60060;SDS011;45933;51.336;12.612;2023-03-15T07:57:13;89.97;;;43.87;;
60060;SDS011;45933;51.336;12.612;2023-03-15T07:59:39;91.63;;;56.30;;
60060;SDS011;45933;51.336;12.612;2023-03-15T08:02:04;115.30;;;69.70;;
60060;SDS011;45933;51.336;12.612;2023-03-15T08:04:29;47.07;;;29.20;;
60060;SDS011;45933;51.336;12.612;2023-03-15T08:06:55;22.67;;;12.37;;
60060;SDS011;45933;51.336;12.612;2023-03-15T08:09:20;18.73;;;7.53;;
60060;SDS011;45933;51.336;12.612;2023-03-15T08:11:46;14.67;;;6.53;;
60060;SDS011;45933;51.336;12.612;2023-03-15T08:14:11;14.53;;;5.40;;
60060;SDS011;45933;51.336;12.612;2023-03-15T08:16:36;15.50;;;3.83;;
60060;SDS011;45933;51.336;12.612;2023-03-15T08:19:02;10.37;;;4.03;;
60060;SDS011;45933;51.336;12.612;2023-03-15T08:21:27;15.03;;;4.40;;
60060;SDS011;45933;51.336;12.612;2023-03-15T08:23:52;10.50;;;4.50;;
60060;SDS011;45933;51.336;12.612;2023-03-15T08:26:18;13.93;;;5.63;;
60060;SDS011;45933;51.336;12.612;2023-03-15T08:28:43;12.27;;;5.77;;
60060;SDS011;45933;51.336;12.612;2023-03-15T08:31:08;9.17;;;4.70;;
60060;SDS011;45933;51.336;12.612;2023-03-15T08:33:34;8.87;;;3.77;;
60060;SDS011;45933;51.336;12.612;2023-03-15T08:35:59;9.17;;;3.30;;
60060;SDS011;45933;51.336;12.612;2023-03-15T08:38:25;8.13;;;3.57;;
60060;SDS011;45933;51.336;12.612;2023-03-15T08:40:57;12.17;;;3.70;;
60060;SDS011;45933;51.336;12.612;2023-03-15T08:43:22;14.93;;;5.10;;
60060;SDS011;45933;51.336;12.612;2023-03-15T08:45:48;12.87;;;6.30;;
60060;SDS011;45933;51.336;12.612;2023-03-15T08:48:14;17.13;;;9.53;;
60060;SDS011;45933;51.336;12.612;2023-03-15T08:50:40;10.90;;;4.77;;
60060;SDS011;45933;51.336;12.612;2023-03-15T08:53:05;11.70;;;6.90;;
60060;SDS011;45933;51.336;12.612;2023-03-15T08:55:30;8.53;;;3.27;;
60060;SDS011;45933;51.336;12.612;2023-03-15T08:57:56;6.77;;;2.57;;
60060;SDS011;45933;51.336;12.612;2023-03-15T09:00:21;11.40;;;2.47;;
60060;SDS011;45933;51.336;12.612;2023-03-15T09:02:50;13.37;;;4.10;;
60060;SDS011;45933;51.336;12.612;2023-03-15T09:05:16;8.97;;;2.93;;
60060;SDS011;45933;51.336;12.612;2023-03-15T09:07:42;10.97;;;3.37;;
60060;SDS011;45933;51.336;12.612;2023-03-15T09:10:09;8.25;;;3.03;;
60060;SDS011;45933;51.336;12.612;2023-03-15T09:12:38;6.23;;;2.53;;
60060;SDS011;45933;51.336;12.612;2023-03-15T09:15:03;10.27;;;3.17;;
60060;SDS011;45933;51.336;12.612;2023-03-15T09:17:28;9.43;;;3.33;;
60060;SDS011;45933;51.336;12.612;2023-03-15T09:19:54;12.27;;;5.53;;
60060;SDS011;45933;51.336;12.612;2023-03-15T09:22:19;15.23;;;3.58;;
60060;SDS011;45933;51.336;12.612;2023-03-15T09:24:44;16.88;;;5.80;;
60060;SDS011;45933;51.336;12.612;2023-03-15T09:27:10;8.13;;;5.40;;
60060;SDS011;45933;51.336;12.612;2023-03-15T09:29:35;12.57;;;3.72;;
60060;SDS011;45933;51.336;12.612;2023-03-15T09:32:01;8.27;;;2.97;;
60060;SDS011;45933;51.336;12.612;2023-03-15T09:34:27;11.30;;;3.78;;
60060;SDS011;45933;51.336;12.612;2023-03-15T09:36:52;10.95;;;3.22;;
60060;SDS011;45933;51.336;12.612;2023-03-15T09:39:20;11.18;;;3.60;;
60060;SDS011;45933;51.336;12.612;2023-03-15T09:41:47;8.27;;;2.97;;
60060;SDS011;45933;51.336;12.612;2023-03-15T09:52:02;11.75;;;5.38;;
60060;SDS011;45933;51.336;12.612;2023-03-15T09:54:38;12.23;;;3.20;;
60060;SDS011;45933;51.336;12.612;2023-03-15T09:57:09;5.97;;;2.60;;
60060;SDS011;45933;51.336;12.612;2023-03-15T09:59:42;6.68;;;2.25;;
60060;SDS011;45933;51.336;12.612;2023-03-15T10:02:18;8.05;;;2.88;;
60060;SDS011;45933;51.336;12.612;2023-03-15T10:04:49;9.30;;;2.58;;
60060;SDS011;45933;51.336;12.612;2023-03-15T10:07:19;8.13;;;2.60;;
60060;SDS011;45933;51.336;12.612;2023-03-15T10:09:45;5.70;;;2.42;;
60060;SDS011;45933;51.336;12.612;2023-03-15T10:12:14;7.00;;;2.60;;
60060;SDS011;45933;51.336;12.612;2023-03-15T10:17:39;10.10;;;2.03;;
60060;SDS011;45933;51.336;12.612;2023-03-15T10:20:18;7.38;;;1.83;;
60060;SDS011;45933;51.336;12.612;2023-03-15T10:25:26;7.22;;;2.15;;
60060;SDS011;45933;51.336;12.612;2023-03-15T10:30:30;2.60;;;1.70;;
60060;SDS011;45933;51.336;12.612;2023-03-15T10:33:05;6.57;;;1.92;;
60060;SDS011;45933;51.336;12.612;2023-03-15T10:35:45;5.53;;;2.10;;
60060;SDS011;45933;51.336;12.612;2023-03-15T10:38:14;4.23;;;1.43;;
60060;SDS011;45933;51.336;12.612;2023-03-15T10:40:44;3.90;;;1.30;;
60060;SDS011;45933;51.336;12.612;2023-03-15T10:43:28;3.30;;;1.20;;
60060;SDS011;45933;51.336;12.612;2023-03-15T10:48:31;4.10;;;2.03;;
60060;SDS011;45933;51.336;12.612;2023-03-15T10:56:33;4.07;;;1.33;;
60060;SDS011;45933;51.336;12.612;2023-03-15T10:59:01;1.60;;;1.02;;
60060;SDS011;45933;51.336;12.612;2023-03-15T11:01:28;3.67;;;1.33;;
60060;SDS011;45933;51.336;12.612;2023-03-15T11:06:38;3.33;;;1.30;;
60060;SDS011;45933;51.336;12.612;2023-03-15T11:09:08;3.20;;;1.48;;
60060;SDS011;45933;51.336;12.612;2023-03-15T11:11:49;3.58;;;1.83;;
60060;SDS011;45933;51.336;12.612;2023-03-15T11:17:02;3.58;;;1.75;;
60060;SDS011;45933;51.336;12.612;2023-03-15T11:19:30;4.65;;;2.08;;
60060;SDS011;45933;51.336;12.612;2023-03-15T11:22:00;5.97;;;1.67;;
60060;SDS011;45933;51.336;12.612;2023-03-15T11:24:30;4.70;;;1.63;;
60060;SDS011;45933;51.336;12.612;2023-03-15T11:26:58;3.73;;;1.77;;
60060;SDS011;45933;51.336;12.612;2023-03-15T11:31:54;2.43;;;1.40;;
60060;SDS011;45933;51.336;12.612;2023-03-15T11:34:40;5.50;;;2.10;;
60060;SDS011;45933;51.336;12.612;2023-03-15T11:37:45;4.80;;;1.50;;
60060;SDS011;45933;51.336;12.612;2023-03-15T11:40:11;2.07;;;1.63;;
60060;SDS011;45933;51.336;12.612;2023-03-15T11:42:47;5.50;;;1.60;;
60060;SDS011;45933;51.336;12.612;2023-03-15T11:45:33;3.10;;;1.50;;
60060;SDS011;45933;51.336;12.612;2023-03-15T11:48:07;6.47;;;3.53;;
60060;SDS011;45933;51.336;12.612;2023-03-15T11:50:38;9.17;;;3.57;;
60060;SDS011;45933;51.336;12.612;2023-03-15T11:53:04;5.83;;;2.53;;
60060;SDS011;45933;51.336;12.612;2023-03-15T11:55:31;4.97;;;2.37;;
60060;SDS011;45933;51.336;12.612;2023-03-15T11:57:57;3.63;;;2.20;;
60060;SDS011;45933;51.336;12.612;2023-03-15T12:00:52;4.27;;;1.80;;
60060;SDS011;45933;51.336;12.612;2023-03-15T12:03:26;3.37;;;1.60;;
60060;SDS011;45933;51.336;12.612;2023-03-15T12:11:00;3.43;;;1.80;;
60060;SDS011;45933;51.336;12.612;2023-03-15T12:13:29;4.83;;;1.40;;
60060;SDS011;45933;51.336;12.612;2023-03-15T12:15:56;2.17;;;1.30;;
60060;SDS011;45933;51.336;12.612;2023-03-15T12:18:26;2.78;;;1.15;;
60060;SDS011;45933;51.336;12.612;2023-03-15T12:20:57;3.53;;;1.10;;
60060;SDS011;45933;51.336;12.612;2023-03-15T12:23:34;2.47;;;0.80;;
60060;SDS011;45933;51.336;12.612;2023-03-15T12:28:32;3.35;;;1.00;;
60060;SDS011;45933;51.336;12.612;2023-03-15T12:31:08;1.73;;;0.77;;
60060;SDS011;45933;51.336;12.612;2023-03-15T12:33:47;4.32;;;1.02;;
60060;SDS011;45933;51.336;12.612;2023-03-15T12:36:20;2.92;;;0.80;;
60060;SDS011;45933;51.336;12.612;2023-03-15T12:39:01;3.17;;;0.80;;
60060;SDS011;45933;51.336;12.612;2023-03-15T12:41:50;3.28;;;0.73;;
60060;SDS011;45933;51.336;12.612;2023-03-15T12:44:26;3.63;;;0.90;;
60060;SDS011;45933;51.336;12.612;2023-03-15T12:47:04;2.40;;;1.13;;
60060;SDS011;45933;51.336;12.612;2023-03-15T12:49:36;1.33;;;1.08;;
60060;SDS011;45933;51.336;12.612;2023-03-15T12:57:36;2.13;;;0.70;;
60060;SDS011;45933;51.336;12.612;2023-03-15T13:02:48;1.75;;;0.73;;
60060;SDS011;45933;51.336;12.612;2023-03-15T13:05:27;2.08;;;1.00;;
60060;SDS011;45933;51.336;12.612;2023-03-15T13:10:31;2.95;;;0.90;;
60060;SDS011;45933;51.336;12.612;2023-03-15T13:15:37;2.53;;;0.90;;
60060;SDS011;45933;51.336;12.612;2023-03-15T13:18:10;5.30;;;1.20;;
60060;SDS011;45933;51.336;12.612;2023-03-15T13:23:30;1.67;;;1.08;;
60060;SDS011;45933;51.336;12.612;2023-03-15T13:29:14;2.33;;;1.30;;
60060;SDS011;45933;51.336;12.612;2023-03-15T13:31:42;1.48;;;1.13;;
60060;SDS011;45933;51.336;12.612;2023-03-15T13:34:16;3.30;;;0.80;;
60060;SDS011;45933;51.336;12.612;2023-03-15T13:36:55;3.75;;;0.95;;
60060;SDS011;45933;51.336;12.612;2023-03-15T13:39:26;2.00;;;1.58;;
60060;SDS011;45933;51.336;12.612;2023-03-15T13:41:57;1.20;;;0.90;;
60060;SDS011;45933;51.336;12.612;2023-03-15T13:44:24;2.60;;;1.00;;
60060;SDS011;45933;51.336;12.612;2023-03-15T13:46:53;2.65;;;1.10;;
60060;SDS011;45933;51.336;12.612;2023-03-15T13:49:19;2.65;;;1.00;;
60060;SDS011;45933;51.336;12.612;2023-03-15T13:51:46;1.00;;;0.68;;
60060;SDS011;45933;51.336;12.612;2023-03-15T13:56:46;1.20;;;1.05;;
60060;SDS011;45933;51.336;12.612;2023-03-15T13:59:21;3.85;;;1.52;;
60060;SDS011;45933;51.336;12.612;2023-03-15T14:01:50;2.22;;;0.95;;
60060;SDS011;45933;51.336;12.612;2023-03-15T14:04:19;2.75;;;1.10;;
60060;SDS011;45933;51.336;12.612;2023-03-15T14:06:46;3.95;;;0.77;;
60060;SDS011;45933;51.336;12.612;2023-03-15T14:09:16;2.55;;;0.95;;
60060;SDS011;45933;51.336;12.612;2023-03-15T14:11:45;1.63;;;0.90;;
60060;SDS011;45933;51.336;12.612;2023-03-15T14:14:25;2.10;;;1.10;;
60060;SDS011;45933;51.336;12.612;2023-03-15T14:16:52;2.30;;;1.40;;
60060;SDS011;45933;51.336;12.612;2023-03-15T14:19:21;1.65;;;0.80;;
60060;SDS011;45933;51.336;12.612;2023-03-15T14:21:58;2.25;;;0.90;;
60060;SDS011;45933;51.336;12.612;2023-03-15T14:24:34;2.22;;;1.38;;
60060;SDS011;45933;51.336;12.612;2023-03-15T14:27:04;2.42;;;1.27;;
60060;SDS011;45933;51.336;12.612;2023-03-15T14:29:33;2.00;;;1.10;;
60060;SDS011;45933;51.336;12.612;2023-03-15T14:32:01;1.48;;;1.20;;
60060;SDS011;45933;51.336;12.612;2023-03-15T14:34:45;2.00;;;1.40;;
60060;SDS011;45933;51.336;12.612;2023-03-15T14:40:17;1.50;;;1.13;;
60060;SDS011;45933;51.336;12.612;2023-03-15T14:42:45;2.60;;;1.20;;
60060;SDS011;45933;51.336;12.612;2023-03-15T14:45:11;3.05;;;1.40;;
60060;SDS011;45933;51.336;12.612;2023-03-15T14:47:38;3.13;;;1.40;;
60060;SDS011;45933;51.336;12.612;2023-03-15T14:50:09;3.22;;;1.33;;
60060;SDS011;45933;51.336;12.612;2023-03-15T14:52:46;1.88;;;1.25;;
60060;SDS011;45933;51.336;12.612;2023-03-15T14:55:20;3.22;;;1.52;;
60060;SDS011;45933;51.336;12.612;2023-03-15T14:57:47;3.25;;;1.10;;
60060;SDS011;45933;51.336;12.612;2023-03-15T15:00:14;5.38;;;1.30;;
60060;SDS011;45933;51.336;12.612;2023-03-15T15:02:41;5.32;;;1.50;;
60060;SDS011;45933;51.336;12.612;2023-03-15T15:05:31;2.65;;;1.20;;
60060;SDS011;45933;51.336;12.612;2023-03-15T15:07:58;2.75;;;1.35;;
60060;SDS011;45933;51.336;12.612;2023-03-15T15:10:28;2.72;;;1.35;;
60060;SDS011;45933;51.336;12.612;2023-03-15T15:12:54;2.42;;;1.20;;
60060;SDS011;45933;51.336;12.612;2023-03-15T15:15:20;1.88;;;1.00;;
60060;SDS011;45933;51.336;12.612;2023-03-15T15:17:46;1.45;;;0.85;;
60060;SDS011;45933;51.336;12.612;2023-03-15T15:20:12;2.30;;;1.00;;
60060;SDS011;45933;51.336;12.612;2023-03-15T15:22:40;3.10;;;1.10;;
60060;SDS011;45933;51.336;12.612;2023-03-15T15:28:01;4.72;;;1.60;;
60060;SDS011;45933;51.336;12.612;2023-03-15T15:30:26;2.63;;;1.20;;
60060;SDS011;45933;51.336;12.612;2023-03-15T15:32:53;3.70;;;1.30;;
60060;SDS011;45933;51.336;12.612;2023-03-15T15:35:20;3.70;;;1.13;;
60060;SDS011;45933;51.336;12.612;2023-03-15T15:37:46;3.88;;;1.67;;
60060;SDS011;45933;51.336;12.612;2023-03-15T15:40:15;5.43;;;1.47;;
60060;SDS011;45933;51.336;12.612;2023-03-15T15:42:41;5.03;;;1.80;;
60060;SDS011;45933;51.336;12.612;2023-03-15T15:45:08;4.37;;;1.60;;
60060;SDS011;45933;51.336;12.612;2023-03-15T15:47:36;5.47;;;1.37;;